Time;durP1;ratioP1;P1;durP2;ratioP2;P2;SDS_P1;SDS_P2;PMS_P1;PMS_P2;Temp;Humidity;BMP_temperature;BMP_pressure;BME280_temperature;BME280_humidity;BME280_pressure;Samples;Min_cycle;Max_cycle;Signal;HPM_P1;HPM_P2
2023/02/23 00:01:26;;;;;;;23.80;10.30;;;;;;;5.75;72.78;99127.98;107115;1279;23398;-77
2023/02/23 00:04:04;;;;;;;33.70;10.80;;;;;;;5.74;72.92;99130.58;104065;1279;3894171;-79
2023/02/23 00:06:43;;;;;;;31.00;13.40;;;;;;;5.72;73.14;99130.23;107082;1279;22526;-78
2023/02/23 00:09:33;;;;;;;27.70;13.20;;;;;;;5.71;72.96;99131.45;107097;1280;22692;-79
2023/02/23 00:12:22;;;;;;;31.60;13.70;;;;;;;5.67;73.46;99136.45;107066;1277;22514;-79
2023/02/23 00:15:03;;;;;;;28.90;12.50;;;;;;;5.64;72.92;99136.30;107141;1279;22569;-78
2023/02/23 00:17:46;;;;;;;35.00;13.90;;;;;;;5.57;72.14;99139.77;107122;1261;25432;-79
2023/02/23 00:20:30;;;;;;;36.90;13.90;;;;;;;5.47;72.79;99134.83;107167;1279;22537;-79
2023/02/23 00:23:07;;;;;;;32.70;14.40;;;;;;;5.40;72.65;99137.77;107332;1272;22538;-79
2023/02/23 00:25:46;;;;;;;34.10;14.00;;;;;;;5.32;73.25;99137.11;107093;1273;22744;-79
2023/02/23 00:28:23;;;;;;;27.60;13.00;;;;;;;5.27;72.89;99138.49;107100;1272;22626;-78
2023/02/23 00:30:59;;;;;;;31.50;14.10;;;;;;;5.20;72.88;99143.85;107062;1279;25351;-78
2023/02/23 00:33:41;;;;;;;32.90;14.30;;;;;;;5.14;74.26;99138.88;107034;1270;24165;-77
2023/02/23 00:36:27;;;;;;;31.10;13.70;;;;;;;5.08;73.28;99137.68;107120;1272;24994;-77
2023/02/23 00:39:16;;;;;;;38.00;15.50;;;;;;;5.02;72.58;99135.46;107036;1280;22530;-77
2023/02/23 00:41:51;;;;;;;33.40;13.40;;;;;;;4.97;73.03;99139.09;107114;1277;22505;-79
2023/02/23 00:44:33;;;;;;;33.60;13.50;;;;;;;4.94;74.07;99142.19;107080;1279;25268;-78
2023/02/23 00:47:17;;;;;;;32.20;14.00;;;;;;;4.92;73.89;99143.21;107089;1279;25802;-79
2023/02/23 00:49:56;;;;;;;33.70;14.30;;;;;;;4.90;72.87;99142.70;107131;1279;25342;-79
2023/02/23 00:52:32;;;;;;;38.10;15.30;;;;;;;4.86;72.52;99145.46;107055;1279;22533;-79
2023/02/23 00:55:07;;;;;;;38.40;15.20;;;;;;;4.81;72.76;99144.44;107109;1279;23761;-78
2023/02/23 00:57:45;;;;;;;35.70;15.50;;;;;;;4.76;73.42;99140.14;107047;1273;22659;-78
2023/02/23 01:00:20;;;;;;;37.50;14.40;;;;;;;4.74;73.16;99140.66;107011;1273;22601;-79
2023/02/23 01:02:51;;;;;;;32.10;13.40;;;;;;;4.68;72.99;99137.06;107021;1274;24227;-78
2023/02/23 01:05:25;;;;;;;;;;;;;;;4.63;73.12;99136.55;106933;1279;25709;-78
2023/02/23 01:07:54;;;;;;;39.50;13.20;;;;;;;4.58;73.25;99133.63;106997;1272;24200;-77
2023/02/23 01:10:28;;;;;;;37.40;14.10;;;;;;;4.54;72.88;99133.80;107060;1279;22532;-78
2023/02/23 01:13:03;;;;;;;31.80;13.00;;;;;;;4.51;74.69;99137.40;107064;1279;23311;-78
2023/02/23 01:15:43;;;;;;;33.20;14.10;;;;;;;4.49;74.65;99136.54;106997;1273;25298;-77
2023/02/23 01:18:23;;;;;;;35.90;14.20;;;;;;;4.49;75.04;99132.42;107297;1279;26640;-78
2023/02/23 01:20:57;;;;;;;26.30;12.00;;;;;;;4.48;75.16;99131.40;107017;1279;23311;-77
2023/02/23 01:23:29;;;;;;;32.70;13.90;;;;;;;4.46;75.24;99128.82;107050;1279;22474;-78
2023/02/23 01:26:02;;;;;;;34.50;13.40;;;;;;;4.42;75.49;99127.63;107113;1279;22575;-77
2023/02/23 01:28:39;;;;;;;34.70;13.40;;;;;;;4.38;74.16;99129.16;106960;1272;25414;-78
2023/02/23 01:31:09;;;;;;;31.80;12.70;;;;;;;4.32;73.81;99133.45;107160;1272;24208;-78
2023/02/23 01:33:40;;;;;;;30.00;11.70;;;;;;;4.29;73.87;99134.48;107105;1279;22921;-78
2023/02/23 01:36:12;;;;;;;29.40;12.70;;;;;;;4.28;74.98;99135.52;106983;1272;25461;-77
2023/02/23 01:38:46;;;;;;;34.80;12.70;;;;;;;4.28;75.05;99128.83;107194;1279;25237;-79
2023/02/23 01:41:22;;;;;;;27.20;11.90;;;;;;;4.29;74.76;99131.58;107162;1278;22553;-77
2023/02/23 01:44:05;;;;;;;32.40;12.00;;;;;;;4.29;75.91;99130.53;107119;1280;23099;-79
2023/02/23 01:46:44;;;;;;;28.90;11.80;;;;;;;4.31;76.02;99127.96;107112;1279;22570;-79
2023/02/23 01:49:25;;;;;;;29.70;11.80;;;;;;;4.34;76.31;99124.52;107038;1279;25309;-78
2023/02/23 01:52:15;;;;;;;29.00;11.50;;;;;;;4.36;76.59;99127.28;107213;1272;22782;-79
2023/02/23 01:54:55;;;;;;;32.50;11.60;;;;;;;4.36;77.04;99123.00;107021;1279;24227;-78
2023/02/23 01:57:26;;;;;;;28.80;12.50;;;;;;;4.38;76.88;99122.30;107119;1275;22527;-79
2023/02/23 01:59:55;;;;;;;35.10;13.30;;;;;;;4.39;76.71;99121.44;107111;1279;22603;-78
2023/02/23 02:02:33;;;;;;;33.00;13.10;;;;;;;4.42;77.00;99122.29;107135;1272;22738;-79
2023/02/23 02:05:12;;;;;;;29.30;13.60;;;;;;;4.42;76.55;99126.24;107082;1279;22667;-78
2023/02/23 02:07:57;;;;;;;30.70;14.40;;;;;;;4.40;76.56;99128.99;107153;1279;22800;-78
2023/02/23 02:10:47;;;;;;;36.50;13.50;;;;;;;4.38;76.64;99125.56;107061;1273;25437;-79
2023/02/23 02:13:29;;;;;;;31.00;13.70;;;;;;;4.32;76.31;99130.87;107127;1272;24414;-78
2023/02/23 02:16:29;;;;;;;29.10;12.40;;;;;;;4.28;76.83;99127.63;107018;1273;22540;-79
2023/02/23 02:19:33;;;;;;;29.80;13.00;;;;;;;4.21;76.50;99133.44;107196;1276;22795;-79
2023/02/23 02:22:14;;;;;;;30.90;13.10;;;;;;;4.12;76.51;99132.05;107154;1279;23441;-77
2023/02/23 02:25:19;;;;;;;26.40;12.30;;;;;;;4.04;76.99;99133.93;107620;1275;22491;-79
2023/02/23 02:28:43;;;;;;;27.60;12.50;;;;;;;3.97;76.91;99134.95;107123;1279;22610;-78
2023/02/23 02:31:53;;;;;;;25.70;11.30;;;;;;;3.87;77.23;99135.61;107077;1279;23876;-77
2023/02/23 02:35:14;;;;;;;36.50;11.80;;;;;;;3.77;77.99;99136.09;107139;1279;25298;-77
2023/02/23 02:38:19;;;;;;;27.80;9.90;;;;;;;3.67;78.33;99136.23;107165;1276;22950;-78
2023/02/23 02:41:25;;;;;;;23.20;9.70;;;;;;;3.58;78.77;99136.71;107056;1275;23311;-79
2023/02/23 02:44:56;;;;;;;30.90;9.90;;;;;;;3.47;77.55;99141.13;107209;1273;23097;-79
2023/02/23 02:47:47;;;;;;;33.20;10.30;;;;;;;3.35;78.63;99146.56;106620;1287;25473;-77
2023/02/23 02:50:39;;;;;;;22.00;10.00;;;;;;;3.29;79.12;99148.59;106568;1287;25462;-77
2023/02/23 02:53:19;;;;;;;23.70;10.70;;;;;;;3.25;79.24;99149.59;107153;1279;22510;-79
2023/02/23 02:56:04;;;;;;;22.50;9.30;;;;;;;3.21;79.76;99153.34;107169;1279;22645;-77
2023/02/23 02:58:52;;;;;;;21.00;10.40;;;;;;;3.20;80.77;99157.62;107186;1279;23935;-78
2023/02/23 04:19:08;;;;;;;28.40;10.70;;;;;;;3.84;78.48;99169.72;107121;1279;25275;-77
2023/02/23 04:21:44;;;;;;;21.80;9.90;;;;;;;3.82;78.31;99173.83;107115;1279;23919;-78
2023/02/23 04:24:27;;;;;;;29.40;10.30;;;;;;;3.82;78.51;99172.79;107105;1273;25097;-79
2023/02/23 04:27:10;;;;;;;29.90;10.80;;;;;;;3.82;78.31;99169.38;107176;1269;24435;-79
2023/02/23 04:29:43;;;;;;;23.90;9.00;;;;;;;3.81;77.96;99168.67;107039;1275;22601;-78
2023/02/23 04:32:21;;;;;;;24.30;9.50;;;;;;;3.81;77.96;99168.34;107143;1278;23900;-78
2023/02/23 04:34:55;;;;;;;26.40;10.30;;;;;;;3.81;78.02;99166.10;107162;1280;22688;-79
2023/02/23 04:37:27;;;;;;;20.20;9.00;;;;;;;3.78;78.13;99161.48;107099;1265;23059;-78
2023/02/23 04:40:00;;;;;;;29.60;11.10;;;;;;;3.80;78.12;99166.28;107179;1279;23380;-79
2023/02/23 04:42:32;;;;;;;25.90;9.60;;;;;;;3.79;78.33;99163.89;107275;1268;22538;-78
2023/02/23 04:45:06;;;;;;;27.20;10.40;;;;;;;3.74;77.17;99162.66;107084;1269;22526;-78
2023/02/23 04:47:35;;;;;;;25.60;11.00;;;;;;;3.67;77.74;99164.35;107408;1279;25455;-79
2023/02/23 04:50:13;;;;;;;21.20;9.30;;;;;;;3.66;78.33;99161.42;107955;1279;25221;-79
2023/02/23 04:52:50;;;;;;;22.20;9.20;;;;;;;3.65;78.11;99165.54;107641;1279;22582;-78
2023/02/23 04:55:25;;;;;;;21.30;10.00;;;;;;;3.64;78.57;99169.83;107120;1279;25294;-79
2023/02/23 04:58:03;;;;;;;23.50;9.50;;;;;;;3.65;79.12;99169.83;107144;1275;24001;-79
2023/02/23 05:00:38;;;;;;;24.30;9.90;;;;;;;3.66;79.29;99172.23;107156;1275;25236;-79
2023/02/23 05:03:16;;;;;;;30.50;10.60;;;;;;;3.66;79.05;99173.94;107437;1279;22591;-78
2023/02/23 05:05:45;;;;;;;25.60;11.00;;;;;;;3.66;79.47;99173.09;107121;1275;22539;-79
2023/02/23 05:08:16;;;;;;;30.80;9.50;;;;;;;3.66;79.38;99176.52;107106;1279;24244;-79
2023/02/23 05:10:47;;;;;;;32.80;9.80;;;;;;;3.66;79.47;99175.83;107001;1269;22522;-78
2023/02/23 05:13:25;;;;;;;36.00;11.60;;;;;;;3.65;79.29;99178.74;107091;1272;22573;-78
2023/02/23 05:16:00;;;;;;;37.70;11.50;;;;;;;3.66;79.13;99182.17;107074;1277;22658;-78
2023/02/23 05:18:33;;;;;;;29.90;9.50;;;;;;;3.66;79.31;99181.49;106936;1275;25588;-78
2023/02/23 05:21:09;;;;;;;24.40;9.80;;;;;;;3.68;79.21;99182.88;107020;1277;22659;-79
2023/02/23 05:23:44;;;;;;;26.00;10.50;;;;;;;3.70;79.38;99185.95;107004;1275;22532;-78
2023/02/23 05:26:18;;;;;;;25.90;10.10;;;;;;;3.76;79.42;99188.90;107065;1272;25828;-78
2023/02/23 05:28:51;;;;;;;25.00;9.80;;;;;;;3.83;79.30;99192.17;107450;1273;22548;-79
2023/02/23 05:31:27;;;;;;;25.40;9.50;;;;;;;3.88;79.13;99193.20;107086;1272;22517;-78
2023/02/23 05:34:06;;;;;;;27.50;11.30;;;;;;;3.93;79.00;99194.27;107123;1279;22526;-79
2023/02/23 05:36:46;;;;;;;40.60;13.80;;;;;;;3.98;78.76;99195.66;107030;1273;22581;-79
2023/02/23 05:39:17;;;;;;;35.10;15.40;;;;;;;4.01;78.64;99202.02;107123;1279;22491;-79
2023/02/23 05:41:50;;;;;;;40.00;16.30;;;;;;;4.07;78.73;99205.97;107150;1273;22557;-78
2023/02/23 05:44:19;;;;;;;48.00;17.30;;;;;;;4.12;78.76;99208.23;107184;1279;25450;-79
2023/02/23 05:47:00;;;;;;;41.40;16.40;;;;;;;4.14;78.31;99214.40;107130;1275;22535;-79
2023/02/23 05:49:38;;;;;;;37.80;15.00;;;;;;;4.12;77.73;99214.05;107092;1275;22731;-79
2023/02/23 05:52:11;;;;;;;36.30;13.50;;;;;;;4.10;78.21;99217.13;107141;1278;22571;-79
2023/02/23 05:54:48;;;;;;;39.20;14.80;;;;;;;4.13;78.65;99220.41;107236;1272;22568;-79
2023/02/23 05:57:23;;;;;;;36.60;13.30;;;;;;;4.15;78.34;99222.47;107210;1278;22610;-79
2023/02/23 05:59:56;;;;;;;39.30;13.20;;;;;;;4.15;78.40;99226.23;107110;1275;22510;-79
2023/02/23 06:02:25;;;;;;;30.10;12.40;;;;;;;4.18;78.19;99232.08;107093;1279;22572;-79
2023/02/23 06:05:09;;;;;;;29.70;11.40;;;;;;;4.15;78.22;99232.23;107204;1277;22656;-79
2023/02/23 06:07:46;;;;;;;28.10;10.20;;;;;;;4.17;78.34;99232.41;107117;1275;23370;-77
2023/02/23 06:10:26;;;;;;;27.40;11.20;;;;;;;4.20;78.21;99239.29;107571;1279;23023;-79
2023/02/23 06:12:57;;;;;;;22.20;9.90;;;;;;;4.24;77.79;99244.95;107131;1272;22541;-78
2023/02/23 06:15:40;;;;;;;23.20;10.30;;;;;;;4.27;77.61;99249.10;107339;1275;22595;-77
2023/02/23 06:18:17;;;;;;;23.80;9.50;;;;;;;4.29;77.46;99252.19;107399;1279;22559;-77
2023/02/23 06:21:00;;;;;;;22.70;10.50;;;;;;;4.30;77.29;99258.54;107123;1279;24296;-79
2023/02/23 06:23:35;;;;;;;23.10;10.20;;;;;;;4.33;77.49;99255.98;107095;1272;25480;-78
2023/02/23 06:26:10;;;;;;;37.20;12.00;;;;;;;4.36;77.13;99260.79;107260;1278;25463;-78
2023/02/23 06:28:50;;;;;;;30.60;12.20;;;;;;;4.38;77.30;99259.41;106902;1282;27432;-78
2023/02/23 06:31:24;;;;;;;32.30;11.90;;;;;;;4.44;77.58;99262.00;107205;1277;23293;-77
2023/02/23 06:34:00;;;;;;;29.60;10.90;;;;;;;4.54;77.54;99268.38;106967;1280;25374;-77
2023/02/23 06:36:40;;;;;;;29.50;11.60;;;;;;;4.60;77.09;99265.47;107029;1272;22557;-78
2023/02/23 06:39:13;;;;;;;25.30;11.30;;;;;;;4.67;76.67;99262.56;107117;1278;22587;-78
2023/02/23 06:41:50;;;;;;;26.40;10.20;;;;;;;4.68;76.41;99266.34;107124;1265;22564;-78
2023/02/23 06:44:27;;;;;;;30.50;10.40;;;;;;;4.68;75.93;99266.52;107121;1275;22583;-77
2023/02/23 06:47:05;;;;;;;25.00;9.70;;;;;;;4.69;76.21;99266.34;107154;1276;23447;-79
2023/02/23 06:49:39;;;;;;;28.70;10.10;;;;;;;4.73;76.25;99266.52;107335;1283;23458;-79
2023/02/23 06:52:12;;;;;;;25.60;10.30;;;;;;;4.78;76.31;99263.61;106983;1277;23966;-79
2023/02/23 06:54:41;;;;;;;29.60;12.80;;;;;;;4.83;76.49;99264.80;107061;1283;22598;-77
2023/02/23 06:57:15;;;;;;;42.50;15.20;;;;;;;4.88;76.64;99264.63;106993;1277;24206;-79
2023/02/23 06:59:52;;;;;;;39.80;12.80;;;;;;;4.96;76.54;99258.98;107583;1275;24653;-80
2023/02/23 07:02:33;;;;;;;42.30;14.60;;;;;;;5.06;76.54;99261.73;107660;1283;22563;-80
2023/02/23 07:05:14;;;;;;;33.70;11.70;;;;;;;5.14;76.88;99261.05;107430;1283;22661;-77
2023/02/23 07:07:51;;;;;;;30.90;11.80;;;;;;;5.17;76.72;99257.94;107193;1281;25298;-80
2023/02/23 07:10:28;;;;;;;37.40;12.50;;;;;;;5.25;76.33;99259.83;107282;1278;22555;-79
2023/02/23 07:12:59;;;;;;;34.20;13.80;;;;;;;5.28;76.09;99260.00;107325;1276;22506;-78
2023/02/23 07:15:48;;;;;;;32.00;14.70;;;;;;;5.38;75.77;99260.50;107655;1275;22926;-81
2023/02/23 07:18:25;;;;;;;38.90;16.50;;;;;;;5.35;75.32;99258.44;107524;1275;23081;-78
2023/02/23 07:21:07;;;;;;;31.90;13.60;;;;;;;5.41;75.44;99259.80;107533;1275;23032;-79
2023/02/23 07:23:50;;;;;;;27.20;12.90;;;;;;;5.34;75.14;99259.13;107094;1283;24250;-79
2023/02/23 07:26:36;;;;;;;33.60;17.80;;;;;;;5.35;75.06;99256.89;107353;1278;23030;-78
2023/02/23 07:29:21;;;;;;;27.10;11.50;;;;;;;5.38;75.12;99259.80;107186;1278;22561;-80
2023/02/23 07:32:05;;;;;;;31.60;12.90;;;;;;;5.41;75.04;99260.32;107785;1283;25614;-79
2023/02/23 07:34:45;;;;;;;37.60;19.70;;;;;;;5.43;74.88;99256.54;107805;1271;22575;-79
2023/02/23 07:37:27;;;;;;;30.80;11.90;;;;;;;5.42;74.68;99255.51;107057;1278;25011;-78
2023/02/23 07:40:14;;;;;;;28.80;11.80;;;;;;;5.43;74.33;99259.46;107081;1283;23523;-79
2023/02/23 07:42:54;;;;;;;24.70;12.30;;;;;;;5.41;73.78;99258.27;106957;1283;25004;-78
2023/02/23 07:45:35;;;;;;;27.50;10.30;;;;;;;5.40;73.83;99259.29;107058;1276;23440;-80
2023/02/23 07:48:19;;;;;;;25.20;11.20;;;;;;;5.41;74.02;99258.26;106993;1281;23580;-79
2023/02/23 07:51:03;;;;;;;31.60;10.90;;;;;;;5.45;73.92;99257.56;107010;1276;22536;-79
2023/02/23 07:53:47;;;;;;;31.90;13.50;;;;;;;5.46;74.00;99260.31;107214;1278;25425;-80
2023/02/23 07:56:42;;;;;;;23.20;9.40;;;;;;;5.53;73.71;99264.08;107649;1275;22532;-82
2023/02/23 07:59:26;;;;;;;28.10;10.80;;;;;;;5.58;73.43;99260.29;108768;1283;24148;-79
2023/02/23 08:02:15;;;;;;;34.30;11.10;;;;;;;5.65;73.30;99258.38;107473;1278;24196;-78
2023/02/23 08:04:53;;;;;;;31.00;10.60;;;;;;;5.72;73.12;99259.57;107924;1278;22103;-81
2023/02/23 08:07:26;;;;;;;27.30;10.10;;;;;;;5.80;73.03;99261.09;107005;1281;22558;-78
2023/02/23 08:09:58;;;;;;;29.70;10.60;;;;;;;5.93;72.86;99260.20;107118;1283;25292;-78
2023/02/23 08:12:30;;;;;;;23.60;8.60;;;;;;;6.06;72.20;99256.72;106932;1281;22898;-79
2023/02/23 08:14:59;;;;;;;21.50;7.70;;;;;;;6.19;71.53;99261.14;106799;1280;22681;-79
2023/02/23 08:17:33;;;;;;;24.00;8.60;;;;;;;6.31;71.45;99260.23;107061;1281;22581;-79
2023/02/23 08:20:02;;;;;;;19.50;7.00;;;;;;;6.46;70.35;99262.20;107061;1278;24210;-79
2023/02/23 08:22:34;;;;;;;17.00;7.00;;;;;;;6.60;69.42;99256.79;106918;1283;26620;-79
2023/02/23 08:25:19;;;;;;;15.40;6.40;;;;;;;6.72;69.09;99257.91;107058;1278;24224;-79
2023/02/23 08:27:53;;;;;;;17.70;7.20;;;;;;;6.78;69.23;99259.08;107193;1280;22528;-79
2023/02/23 08:30:25;;;;;;;17.70;7.10;;;;;;;6.86;69.28;99257.13;107290;1281;26535;-79
2023/02/23 08:32:54;;;;;;;16.10;7.10;;;;;;;6.97;68.57;99259.63;107253;1269;22636;-79
2023/02/23 08:35:23;;;;;;;20.50;8.60;;;;;;;7.07;67.53;99259.71;107124;1278;25619;-78
2023/02/23 08:37:56;;;;;;;20.70;7.50;;;;;;;7.15;67.54;99258.78;107548;1277;22626;-81
2023/02/23 08:40:38;;;;;;;20.70;7.50;;;;;;;7.26;67.71;99255.92;108667;1281;22680;-84
2023/02/23 08:43:26;;;;;;;16.00;6.70;;;;;;;7.38;66.97;99256.16;108298;1276;25383;-81
2023/02/23 08:46:01;;;;;;;27.60;9.70;;;;;;;7.46;66.39;99252.12;108642;1278;22828;-82
2023/02/23 08:48:37;;;;;;;19.10;6.90;;;;;;;7.55;67.16;99253.59;108813;1277;25242;-81
2023/02/23 08:51:13;;;;;;;15.50;6.30;;;;;;;7.62;65.70;99251.78;108094;1275;24445;-82
2023/02/23 08:53:48;;;;;;;25.10;8.50;;;;;;;7.67;65.21;99247.59;108668;1275;24271;-80
2023/02/23 08:56:40;;;;;;;35.80;11.00;;;;;;;7.72;65.04;99246.50;108348;1280;22697;-83
2023/02/23 08:59:18;;;;;;;28.20;9.50;;;;;;;7.80;64.59;99247.10;109728;1283;22606;-82
2023/02/23 09:01:47;;;;;;;27.20;8.40;;;;;;;7.89;65.21;99245.11;109621;1280;25416;-81
2023/02/23 09:04:25;;;;;;;19.70;8.60;;;;;;;8.00;63.84;99246.35;109327;1276;22542;-80
2023/02/23 09:06:54;;;;;;;19.00;7.50;;;;;;;8.07;64.72;99245.23;109214;1283;22547;-80
2023/02/23 09:09:25;;;;;;;21.00;7.80;;;;;;;8.19;63.90;99247.66;109282;1280;23022;-80
2023/02/23 09:12:01;;;;;;;21.20;6.80;;;;;;;8.29;61.95;99245.98;109422;1280;22571;-81
2023/02/23 09:14:35;;;;;;;11.30;4.90;;;;;;;8.41;62.75;99239.45;109456;1283;22580;-81
2023/02/23 09:17:10;;;;;;;17.60;7.00;;;;;;;8.51;62.12;99241.73;109643;1283;22082;-83
2023/02/23 09:19:52;;;;;;;21.00;7.00;;;;;;;8.59;61.29;99238.52;109844;1283;22738;-83
2023/02/23 09:22:47;;;;;;;16.00;6.10;;;;;;;8.61;58.99;99238.14;109298;1283;22484;-80
2023/02/23 09:25:21;;;;;;;12.60;5.60;;;;;;;8.65;58.61;99233.77;109277;1282;22901;-81
2023/02/23 09:27:58;;;;;;;24.10;6.40;;;;;;;8.70;59.02;99239.37;109128;1271;22611;-81
2023/02/23 09:30:31;;;;;;;20.80;6.60;;;;;;;8.73;60.66;99242.45;109181;1275;22535;-79
2023/02/23 09:33:00;;;;;;;18.20;6.50;;;;;;;8.71;58.62;99241.79;109299;1279;23040;-82
2023/02/23 09:35:29;;;;;;;19.10;7.00;;;;;;;8.76;58.09;99241.89;109197;1282;22704;-81
2023/02/23 09:38:02;;;;;;;13.30;5.30;;;;;;;8.86;59.82;99236.70;109265;1283;22834;-82
2023/02/23 09:40:56;;;;;;;14.10;6.20;;;;;;;8.93;58.68;99236.44;109278;1275;22769;-81
2023/02/23 09:43:32;;;;;;;18.80;6.10;;;;;;;8.98;58.22;99234.64;109225;1282;22568;-81
2023/02/23 09:46:35;;;;;;;15.90;8.10;;;;;;;9.02;58.44;99232.31;109497;1275;22601;-80
2023/02/23 09:49:12;;;;;;;16.30;8.00;;;;;;;9.12;58.81;99233.17;109285;1268;22676;-82
2023/02/23 09:51:53;;;;;;;14.30;6.50;;;;;;;9.21;59.47;99232.00;108887;1282;22740;-82
2023/02/23 09:54:34;;;;;;;28.30;12.20;;;;;;;9.27;58.41;99232.05;109533;1280;22571;-82
2023/02/23 09:57:13;;;;;;;16.60;7.50;;;;;;;9.35;57.92;99232.61;109349;1282;23208;-83
2023/02/23 09:59:44;;;;;;;15.40;6.90;;;;;;;9.41;57.97;99231.13;109319;1272;22638;-82
2023/02/23 10:03:07;;;;;;;15.60;5.70;;;;;;;9.45;57.08;99234.67;109277;1259;23522;-80
2023/02/23 10:05:56;;;;;;;20.50;6.50;;;;;;;9.52;57.60;99230.55;109197;1281;22980;-82
2023/02/23 10:08:58;;;;;;;13.70;6.10;;;;;;;9.57;57.15;99225.11;109313;1278;22561;-81
2023/02/23 10:11:55;;;;;;;17.40;6.30;;;;;;;9.65;56.40;99224.96;109200;1277;25148;-84
2023/02/23 10:15:11;;;;;;;21.80;8.00;;;;;;;9.73;56.38;99219.95;109093;1283;22619;-82
2023/02/23 10:17:57;;;;;;;23.90;11.10;;;;;;;9.83;57.06;99213.88;109207;1279;22572;-81
2023/02/23 10:20:52;;;;;;;14.80;6.40;;;;;;;9.93;55.56;99212.96;109333;1281;22742;-81
2023/02/23 10:23:38;;;;;;;12.20;5.60;;;;;;;10.01;54.83;99211.95;109086;1282;22272;-81
2023/02/23 10:26:24;;;;;;;14.80;6.90;;;;;;;10.07;55.33;99212.67;109112;1282;23801;-82
2023/02/23 10:29:02;;;;;;;24.70;10.20;;;;;;;10.12;54.59;99211.53;109113;1283;25421;-81
2023/02/23 10:31:46;;;;;;;21.20;10.30;;;;;;;10.23;55.64;99206.29;109146;1283;22707;-81
2023/02/23 10:34:21;;;;;;;20.70;9.90;;;;;;;10.36;55.46;99201.88;109093;1280;22534;-81
2023/02/23 10:37:07;;;;;;;16.40;7.00;;;;;;;10.47;54.40;99202.48;109023;1283;22472;-83
2023/02/23 10:39:45;;;;;;;21.30;7.40;;;;;;;10.52;54.99;99199.24;109143;1275;22586;-82
2023/02/23 10:42:29;;;;;;;18.20;6.50;;;;;;;10.59;54.16;99199.64;109280;1283;22481;-83
2023/02/23 10:45:17;;;;;;;16.00;6.00;;;;;;;10.64;54.53;99198.48;109181;1283;22768;-81
2023/02/23 10:47:50;;;;;;;17.40;6.70;;;;;;;10.71;55.45;99192.05;109242;1283;22674;-82
2023/02/23 10:50:30;;;;;;;15.30;6.00;;;;;;;10.76;54.33;99188.63;109249;1281;22567;-83
2023/02/23 10:53:21;;;;;;;13.20;5.80;;;;;;;10.86;53.96;99186.14;109224;1282;22571;-82
2023/02/23 10:56:09;;;;;;;;;;;;;;;10.99;53.37;99186.02;109383;1283;22538;-82
2023/02/23 10:58:49;;;;;;;14.30;6.10;;;;;;;11.02;54.27;99182.64;109279;1268;22615;-82
2023/02/23 11:01:49;;;;;;;18.60;7.10;;;;;;;11.06;53.58;99178.52;109144;1277;23479;-82
2023/02/23 11:04:52;;;;;;;33.00;11.10;;;;;;;11.07;53.74;99169.30;108992;1280;23901;-81
2023/02/23 11:07:29;;;;;;;17.90;7.20;;;;;;;11.17;53.64;99168.35;109009;1282;22306;-82
2023/02/23 11:10:25;;;;;;;16.90;6.30;;;;;;;11.28;53.73;99164.95;109076;1279;22558;-82
2023/02/23 11:13:04;;;;;;;18.80;6.70;;;;;;;11.40;53.34;99167.73;108951;1276;22588;-81
2023/02/23 11:15:42;;;;;;;13.80;6.10;;;;;;;11.57;53.39;99161.89;108952;1283;25506;-87
2023/02/23 11:18:25;;;;;;;15.80;6.90;;;;;;;11.71;52.95;99158.36;108928;1280;22564;-81
2023/02/23 11:21:10;;;;;;;17.10;6.70;;;;;;;11.80;51.88;99159.85;108960;1283;22558;-81
2023/02/23 11:23:44;;;;;;;18.20;6.90;;;;;;;11.89;52.94;99155.61;108958;1283;22552;-81
2023/02/23 11:26:53;;;;;;;;;;;;;;;11.91;51.83;99151.91;108917;1281;22554;-83
2023/02/23 11:29:46;;;;;;;18.60;6.10;;;;;;;11.97;51.20;99149.15;109086;1283;22970;-80
2023/02/23 11:32:25;;;;;;;14.70;6.60;;;;;;;11.98;51.24;99149.30;108975;1282;22918;-81
2023/02/23 11:35:37;;;;;;;15.60;6.90;;;;;;;12.08;52.11;99146.89;108942;1283;22568;-79
2023/02/23 11:38:32;;;;;;;17.50;6.70;;;;;;;12.14;51.95;99143.59;108926;1287;22586;-81
2023/02/23 11:41:31;;;;;;;18.80;7.00;;;;;;;12.24;51.91;99140.17;108999;1283;22623;-81
2023/02/23 11:44:26;;;;;;;20.20;7.10;;;;;;;12.39;51.24;99141.06;109121;1278;22730;-80
2023/02/23 11:47:19;;;;;;;16.50;7.40;;;;;;;12.45;50.19;99136.33;109133;1282;22736;-82
2023/02/23 11:49:59;;;;;;;14.60;6.80;;;;;;;12.55;51.74;99132.90;109112;1283;25264;-82
2023/02/23 11:52:31;;;;;;;14.10;6.50;;;;;;;12.63;50.93;99136.31;109220;1281;22485;-81
2023/02/23 11:55:06;;;;;;;16.00;6.80;;;;;;;12.76;50.35;99133.43;109125;1283;22571;-83
2023/02/23 11:57:36;;;;;;;12.70;6.70;;;;;;;13.04;49.79;99133.70;109087;1282;22470;-82
2023/02/23 12:00:32;;;;;;;17.60;7.10;;;;;;;13.27;49.43;99128.58;109054;1279;22482;-82
2023/02/23 12:03:18;;;;;;;13.80;6.90;;;;;;;13.45;49.39;99128.10;108536;1281;798206;-83
2023/02/23 12:06:01;;;;;;;16.20;7.50;;;;;;;13.64;49.18;99127.08;108976;1283;25499;-80
2023/02/23 12:08:56;;;;;;;16.80;7.40;;;;;;;13.83;46.99;99123.22;109028;1275;22627;-81
2023/02/23 12:11:50;;;;;;;14.60;6.80;;;;;;;14.11;48.41;99120.92;109003;1274;25768;-83
2023/02/23 12:14:57;;;;;;;17.20;6.30;;;;;;;14.30;47.46;99119.32;109015;1281;22490;-82
2023/02/23 12:17:39;;;;;;;19.10;7.70;;;;;;;14.38;45.71;99114.61;108814;1275;23884;-82
2023/02/23 12:20:28;;;;;;;18.40;7.60;;;;;;;14.42;45.98;99110.80;108725;1282;22590;-82
2023/02/23 12:23:09;;;;;;;18.00;7.20;;;;;;;14.56;47.63;99107.48;108685;1282;22606;-82
2023/02/23 12:25:55;;;;;;;15.60;6.10;;;;;;;14.69;46.53;99109.21;108758;1279;22745;-82
2023/02/23 12:28:38;;;;;;;13.70;6.60;;;;;;;14.82;45.56;99109.70;108727;1283;24043;-81
2023/02/23 12:32:04;;;;;;;19.90;7.80;;;;;;;14.95;45.50;99101.32;108508;1276;24066;-79
2023/02/23 12:34:55;;;;;;;16.20;7.10;;;;;;;15.13;46.93;99090.41;108439;1281;23161;-81
2023/02/23 12:38:08;;;;;;;18.80;7.10;;;;;;;15.19;45.01;99094.19;108430;1283;22748;-82
2023/02/23 12:40:43;;;;;;;15.30;7.10;;;;;;;15.41;45.98;99091.63;108332;1281;22628;-81
2023/02/23 12:43:25;;;;;;;17.50;7.10;;;;;;;15.55;46.11;99085.41;108279;1283;25508;-82
2023/02/23 12:46:02;;;;;;;18.40;6.90;;;;;;;15.67;44.94;99086.07;108510;1282;23275;-82
2023/02/23 12:49:02;;;;;;;19.20;7.30;;;;;;;15.68;45.31;99087.23;108317;1283;24446;-82
2023/02/23 12:52:07;;;;;;;18.00;7.30;;;;;;;15.63;43.07;99089.58;108258;1281;22568;-82
2023/02/23 12:54:36;;;;;;;13.90;7.00;;;;;;;15.72;42.25;99088.68;108312;1282;22534;-82
2023/02/23 12:57:13;;;;;;;16.80;7.50;;;;;;;15.71;43.40;99085.21;108798;1283;25572;-82
2023/02/23 13:00:29;;;;;;;20.30;10.50;;;;;;;15.73;44.06;99079.02;108933;1281;22898;-83
2023/02/23 13:03:25;;;;;;;18.30;7.50;;;;;;;15.87;43.20;99079.95;108573;1283;22536;-81
2023/02/23 13:06:13;;;;;;;15.30;7.20;;;;;;;16.07;42.06;99079.89;108460;1283;24337;-80
2023/02/23 13:08:55;;;;;;;14.40;7.50;;;;;;;16.18;42.78;99073.44;108440;1260;22717;-83
2023/02/23 13:12:10;;;;;;;13.20;6.70;;;;;;;16.24;42.13;99076.81;108562;1281;22496;-81
2023/02/23 13:14:48;;;;;;;14.80;7.10;;;;;;;16.43;42.95;99078.13;107963;1287;22713;-80
2023/02/23 13:17:34;;;;;;;13.50;6.60;;;;;;;16.53;43.03;99073.92;108325;1270;22523;-81
2023/02/23 13:20:42;;;;;;;16.20;6.80;;;;;;;16.60;40.78;99073.83;108006;1283;23695;-83
2023/02/23 13:23:39;;;;;;;13.00;6.80;;;;;;;16.84;41.50;99067.71;107963;1280;24304;-80
2023/02/23 13:26:25;;;;;;;13.20;6.60;;;;;;;17.00;42.06;99067.77;108002;1281;22517;-81
2023/02/23 13:29:11;;;;;;;14.20;6.70;;;;;;;17.06;39.58;99066.39;107937;1283;22558;-81
2023/02/23 13:31:42;;;;;;;17.20;7.40;;;;;;;17.31;39.51;99065.98;108106;1282;23852;-82
2023/02/23 13:34:28;;;;;;;18.40;7.10;;;;;;;17.39;38.96;99064.48;107999;1281;22568;-81
2023/02/23 13:37:02;;;;;;;15.50;7.00;;;;;;;17.42;41.15;99061.71;108054;1280;23907;-83
2023/02/23 13:40:09;;;;;;;14.70;7.60;;;;;;;17.25;40.24;99067.84;107834;1279;22481;-83
2023/02/23 13:43:16;;;;;;;14.70;7.20;;;;;;;17.28;39.70;99064.71;108214;1282;22549;-81
2023/02/23 13:46:30;;;;;;;17.90;6.70;;;;;;;17.27;41.23;99061.61;108246;1282;24801;-80